createdAt,value
2023-01-06T00:04:53.777Z,96.00
2023-01-06T00:10:02.561Z,96.10
2023-01-06T00:15:11.100Z,96.20
2023-01-06T00:20:19.657Z,96.20
2023-01-06T00:25:27.794Z,96.40
2023-01-06T00:30:36.236Z,96.10
2023-01-06T00:35:44.377Z,95.70
2023-01-06T00:40:52.684Z,95.70
2023-01-06T00:46:01.202Z,95.50
2023-01-06T00:51:10.273Z,95.20
2023-01-06T00:56:18.894Z,95.10
2023-01-06T01:01:27.830Z,95.10
2023-01-06T01:06:35.942Z,94.90
2023-01-06T01:11:44.271Z,94.60
2023-01-06T01:16:53.502Z,94.50
2023-01-06T01:22:02.574Z,94.40
2023-01-06T01:27:10.781Z,94.40
2023-01-06T01:32:19.520Z,94.40
2023-01-06T01:37:27.735Z,94.30
2023-01-06T01:42:39.222Z,94.30
2023-01-06T01:47:37.482Z,94.30
2023-01-06T01:52:45.983Z,94.20
2023-01-06T01:57:54.336Z,93.90
2023-01-06T02:03:03.108Z,93.70
2023-01-06T02:08:11.393Z,93.30
2023-01-06T02:13:20.162Z,93.20
2023-01-06T02:18:28.551Z,92.90
2023-01-06T02:23:37.225Z,92.90
2023-01-06T02:28:45.478Z,92.80
2023-01-06T02:33:53.685Z,92.60
2023-01-06T02:39:02.035Z,92.50
2023-01-06T02:44:12.059Z,92.60
2023-01-06T02:49:18.482Z,92.80
2023-01-06T02:54:27.209Z,92.80
2023-01-06T02:59:35.697Z,93.00
2023-01-06T03:04:44.492Z,93.20
2023-01-06T03:09:52.713Z,92.90
2023-01-06T03:15:01.075Z,92.70
2023-01-06T03:20:09.420Z,92.50
2023-01-06T03:25:20.810Z,92.30
2023-01-06T03:30:18.987Z,92.30
2023-01-06T03:35:27.350Z,92.30
2023-01-06T03:40:35.567Z,92.20
2023-01-06T03:45:44.257Z,92.00
2023-01-06T03:50:52.565Z,92.00
2023-01-06T03:56:01.129Z,91.90
2023-01-06T04:01:09.638Z,92.00
2023-01-06T04:06:17.953Z,92.10
2023-01-06T04:11:26.555Z,92.10
2023-01-06T04:16:35.462Z,91.80
2023-01-06T04:21:43.866Z,91.60
2023-01-06T04:26:52.152Z,91.60
2023-01-06T04:32:00.425Z,91.30
2023-01-06T04:37:09.078Z,91.00
2023-01-06T04:42:17.498Z,90.80
2023-01-06T04:47:25.949Z,90.30
2023-01-06T04:52:34.460Z,90.30
2023-01-06T04:57:43.301Z,90.20
2023-01-06T05:02:51.602Z,90.10
2023-01-06T05:08:00.165Z,89.20
2023-01-06T05:13:08.569Z,87.60
2023-01-06T05:18:17.109Z,86.30
2023-01-06T05:23:25.318Z,85.80
2023-01-06T05:28:33.884Z,85.70
2023-01-06T05:33:41.908Z,85.60
2023-01-06T05:38:50.630Z,85.10
2023-01-06T05:43:58.772Z,84.40
2023-01-06T05:49:07.153Z,84.00
2023-01-06T05:54:15.466Z,83.70
2023-01-06T05:59:24.226Z,83.50
2023-01-06T06:04:32.758Z,83.10
2023-01-06T06:09:41.443Z,83.10
2023-01-06T06:14:49.689Z,83.10
2023-01-06T06:19:58.604Z,83.10
2023-01-06T06:25:06.847Z,83.20
2023-01-06T06:30:15.709Z,83.20
2023-01-06T06:35:24.228Z,83.40
2023-01-06T06:40:32.985Z,83.50
2023-01-06T06:45:41.370Z,83.60
2023-01-06T06:50:49.984Z,83.90
2023-01-06T06:55:58.248Z,84.10
2023-01-06T07:01:07.088Z,84.00
2023-01-06T07:06:15.748Z,84.10
2023-01-06T07:11:24.509Z,84.10
2023-01-06T07:16:32.894Z,84.20
2023-01-06T07:21:41.297Z,84.20
2023-01-06T07:26:49.392Z,84.30
2023-01-06T07:31:58.281Z,84.50
2023-01-06T07:37:06.627Z,84.80
2023-01-06T07:42:14.903Z,84.40
2023-01-06T07:47:23.169Z,84.20
2023-01-06T07:52:35.746Z,83.40
2023-01-06T07:57:34.415Z,81.70
2023-01-06T08:02:43.016Z,80.90
2023-01-06T08:07:51.746Z,79.70
2023-01-06T08:13:00.071Z,79.50
2023-01-06T08:18:08.911Z,79.20
2023-01-06T08:23:17.364Z,78.60
2023-01-06T08:28:25.670Z,78.70
2023-01-06T08:33:33.903Z,78.50
2023-01-06T08:38:42.833Z,78.00
2023-01-06T08:43:51.008Z,77.10
2023-01-06T08:48:59.539Z,77.00
2023-01-06T08:54:07.745Z,75.30
2023-01-06T08:59:16.042Z,74.90
2023-01-06T09:04:24.082Z,74.30
2023-01-06T09:09:32.769Z,74.00
2023-01-06T09:14:41.546Z,74.10
2023-01-06T09:19:49.960Z,73.90
2023-01-06T09:24:58.368Z,73.20
2023-01-06T09:30:07.243Z,72.80
2023-01-06T09:35:15.576Z,71.70
2023-01-06T09:40:24.071Z,71.80
2023-01-06T09:45:35.381Z,71.00
2023-01-06T09:50:33.880Z,71.10
2023-01-06T09:55:42.405Z,71.10
2023-01-06T10:00:50.804Z,71.40
2023-01-06T10:05:59.275Z,71.30
2023-01-06T10:11:07.586Z,71.10
2023-01-06T10:16:15.740Z,71.00
2023-01-06T10:21:24.007Z,70.80
2023-01-06T10:26:32.364Z,70.80
2023-01-06T10:31:41.005Z,70.00
2023-01-06T10:36:49.262Z,68.70
2023-01-06T10:41:57.996Z,68.90
2023-01-06T10:47:06.442Z,68.60
2023-01-06T10:52:15.245Z,68.40
2023-01-06T10:57:23.594Z,68.20
2023-01-06T11:02:31.946Z,68.50
2023-01-06T11:07:40.080Z,68.20
2023-01-06T11:12:48.584Z,68.40
2023-01-06T11:17:56.697Z,68.10
2023-01-06T11:23:05.151Z,68.50
2023-01-06T11:28:13.601Z,68.10
2023-01-06T11:33:22.431Z,67.90
2023-01-06T11:38:30.711Z,67.00
2023-01-06T11:43:39.372Z,66.70
2023-01-06T11:48:47.395Z,66.60
2023-01-06T11:53:55.794Z,66.60
2023-01-06T11:59:04.108Z,66.50
2023-01-06T12:04:12.482Z,66.30
2023-01-06T12:09:20.817Z,66.60
2023-01-06T12:14:29.935Z,66.80
2023-01-06T12:19:36.916Z,67.10
2023-01-06T12:24:45.332Z,67.10
2023-01-06T12:29:56.402Z,67.40
2023-01-06T12:34:55.025Z,67.40
2023-01-06T12:40:03.226Z,67.30
2023-01-06T12:45:11.378Z,67.20
2023-01-06T12:50:19.587Z,67.40
2023-01-06T12:55:29.172Z,67.40
2023-01-06T13:00:37.390Z,67.30
2023-01-06T13:05:45.679Z,67.00
2023-01-06T13:10:53.976Z,67.00
2023-01-06T13:16:02.527Z,67.00
2023-01-06T13:21:10.855Z,66.90
2023-01-06T13:26:19.741Z,66.80
2023-01-06T13:31:28.087Z,66.90
2023-01-06T13:36:36.559Z,66.90
2023-01-06T13:41:44.806Z,66.80
2023-01-06T13:46:53.581Z,66.60
2023-01-06T13:52:01.809Z,66.70
2023-01-06T13:57:10.393Z,66.60
2023-01-06T14:02:18.937Z,66.60
2023-01-06T14:07:27.837Z,66.70
2023-01-06T14:12:35.838Z,66.60
2023-01-06T14:17:44.478Z,66.80
2023-01-06T14:22:52.463Z,67.10
2023-01-06T14:28:01.221Z,67.10
2023-01-06T14:33:09.448Z,67.00
2023-01-06T14:38:18.296Z,66.80
2023-01-06T14:43:26.311Z,66.90
2023-01-06T14:48:34.851Z,66.80
2023-01-06T14:53:43.090Z,68.30
2023-01-06T14:58:51.494Z,68.80
2023-01-06T15:04:00.000Z,68.60
2023-01-06T15:09:08.494Z,68.10
2023-01-06T15:14:16.726Z,67.60
2023-01-06T15:19:25.187Z,67.50
2023-01-06T15:24:33.480Z,67.50
2023-01-06T15:29:41.860Z,67.60
2023-01-06T15:34:50.032Z,67.50
2023-01-06T15:39:58.653Z,67.40
2023-01-06T15:45:07.803Z,67.50
2023-01-06T15:50:14.968Z,67.40
2023-01-06T15:55:23.225Z,67.30
2023-01-06T16:00:31.993Z,67.30
2023-01-06T16:05:40.221Z,67.40
2023-01-06T16:10:49.198Z,67.50
2023-01-06T16:15:57.312Z,67.50
2023-01-06T16:21:06.043Z,67.60
2023-01-06T16:26:14.407Z,67.70
2023-01-06T16:31:23.031Z,67.70
2023-01-06T16:36:31.196Z,67.60
2023-01-06T16:41:39.423Z,67.80
2023-01-06T16:46:47.818Z,67.70
2023-01-06T16:51:56.117Z,67.90
2023-01-06T16:57:04.297Z,68.00
2023-01-06T17:02:13.175Z,68.00
2023-01-06T17:07:20.647Z,68.00
2023-01-06T17:12:29.175Z,68.30
2023-01-06T17:17:37.273Z,68.60
2023-01-06T17:22:45.969Z,68.60
2023-01-06T17:27:54.575Z,68.60
2023-01-06T17:33:03.077Z,68.60
2023-01-06T17:38:11.279Z,68.50
2023-01-06T17:43:19.956Z,68.50
2023-01-06T17:48:28.084Z,68.30
2023-01-06T17:53:37.119Z,68.30
2023-01-06T17:58:45.316Z,68.60
2023-01-06T18:03:54.061Z,68.80
2023-01-06T18:09:02.236Z,69.10
2023-01-06T18:14:11.091Z,69.40
2023-01-06T18:19:19.248Z,69.70
2023-01-06T18:24:27.621Z,69.70
2023-01-06T18:29:36.658Z,69.50
2023-01-06T18:34:44.054Z,69.10
2023-01-06T18:39:52.344Z,69.00
2023-01-06T18:45:01.059Z,68.70
2023-01-06T18:50:09.478Z,69.10
2023-01-06T18:55:17.940Z,69.40
2023-01-06T19:00:26.334Z,69.70
2023-01-06T19:05:35.417Z,69.80
2023-01-06T19:10:44.145Z,70.00
2023-01-06T19:15:52.796Z,70.20
2023-01-06T19:21:02.439Z,70.00
2023-01-06T19:26:10.720Z,69.80
2023-01-06T19:31:19.180Z,69.70
2023-01-06T19:36:27.458Z,69.60
2023-01-06T19:41:35.683Z,69.70
2023-01-06T19:46:44.410Z,70.00
2023-01-06T19:51:52.621Z,70.10
2023-01-06T19:57:01.314Z,70.50
2023-01-06T20:02:09.648Z,70.50
2023-01-06T20:07:18.106Z,70.00
2023-01-06T20:12:26.234Z,69.70
2023-01-06T20:17:34.700Z,69.40
2023-01-06T20:22:43.041Z,69.90
2023-01-06T20:27:51.757Z,69.90
2023-01-06T20:33:00.000Z,69.70
2023-01-06T20:38:08.439Z,69.80
2023-01-06T20:43:17.063Z,69.80
2023-01-06T20:48:25.800Z,69.80
2023-01-06T20:53:33.986Z,68.90
2023-01-06T20:58:42.596Z,68.80
2023-01-06T21:03:51.040Z,69.00
2023-01-06T21:08:59.649Z,69.00
2023-01-06T21:14:07.620Z,68.80
2023-01-06T21:19:17.470Z,68.90
2023-01-06T21:24:25.821Z,67.90
2023-01-06T21:29:34.293Z,68.10
2023-01-06T21:34:42.505Z,67.80
2023-01-06T21:39:50.939Z,68.10
2023-01-06T21:44:59.320Z,68.50
2023-01-06T21:50:07.621Z,68.30
2023-01-06T21:55:15.856Z,68.00
2023-01-06T22:00:24.655Z,68.00
2023-01-06T22:05:32.929Z,67.40
2023-01-06T22:10:41.498Z,67.70
2023-01-06T22:15:49.627Z,67.70
2023-01-06T22:20:58.063Z,67.60
2023-01-06T22:26:06.482Z,67.50
2023-01-06T22:31:15.035Z,67.50
2023-01-06T22:36:23.177Z,67.60
2023-01-06T22:41:31.610Z,67.50
2023-01-06T22:46:40.058Z,67.50
2023-01-06T22:51:48.698Z,67.50
2023-01-06T22:56:56.830Z,66.70
2023-01-06T23:02:05.720Z,66.70
2023-01-06T23:07:13.762Z,66.70
2023-01-06T23:12:22.534Z,66.60
2023-01-06T23:17:30.972Z,66.50
2023-01-06T23:22:39.649Z,66.50
2023-01-06T23:27:47.908Z,66.40
2023-01-06T23:32:56.532Z,66.30
2023-01-06T23:38:04.807Z,66.10
2023-01-06T23:43:13.420Z,66.20
2023-01-06T23:48:21.682Z,65.50
2023-01-06T23:53:30.201Z,65.30
2023-01-06T23:58:38.547Z,65.40
